TimeEDT,TemperatureF,Dew PointF,Humidity,Sea Level PressureIn,VisibilityMPH,Wind Direction,Wind SpeedMPH,Gust SpeedMPH,PrecipitationIn,Events,Conditions,WindDirDegrees,DateUTC
12:56 AM,63.0,61.0,93,29.79,10.0,SSE,4.6,-,0.00,Rain-Thunderstorm,Light Thunderstorms and Rain,160,2012-03-25 04:56:00
1:28 AM,64.4,62.6,94,29.76,10.0,SSE,3.5,-,0.03,,Mostly Cloudy,150,2012-03-25 05:28:00
1:49 AM,64.4,62.6,94,29.76,10.0,South,3.5,-,0.03,Thunderstorm,Thunderstorm,190,2012-03-25 05:49:00
1:56 AM,64.0,62.1,93,29.77,10.0,SW,3.5,-,0.03,Rain-Thunderstorm,Light Thunderstorms and Rain,220,2012-03-25 05:56:00
2:08 AM,64.4,62.6,94,29.75,10.0,South,4.6,-,0.00,Thunderstorm,Thunderstorm,180,2012-03-25 06:08:00
2:21 AM,64.4,60.8,88,29.78,1.5,WSW,19.6,25.3,0.20,Rain-Thunderstorm,Heavy Thunderstorms and Rain,240,2012-03-25 06:21:00
2:26 AM,62.6,60.8,94,29.78,1.0,WSW,15.0,25.3,0.30,Rain-Thunderstorm,Heavy Thunderstorms and Rain,250,2012-03-25 06:26:00
2:30 AM,62.6,60.8,94,29.78,1.2,West,12.7,25.3,0.32,Rain-Thunderstorm,Heavy Thunderstorms and Rain,260,2012-03-25 06:30:00
2:34 AM,62.6,60.8,94,29.77,3.0,West,10.4,20.7,0.33,Rain-Thunderstorm,Thunderstorms and Rain,280,2012-03-25 06:34:00
2:47 AM,62.6,60.8,94,29.76,10.0,WNW,8.1,-,0.33,Rain,Light Rain,290,2012-03-25 06:47:00
2:56 AM,62.1,61.0,96,29.76,9.0,West,5.8,-,0.33,Rain,Light Rain,280,2012-03-25 06:56:00
3:56 AM,61.0,60.1,97,29.75,9.0,Calm,Calm,-,0.00,,Mostly Cloudy,0,2012-03-25 07:56:00
4:03 AM,60.8,60.8,100,29.73,10.0,Calm,Calm,-,N/A,,Mostly Cloudy,0,2012-03-25 08:03:00
4:28 AM,60.8,59.0,94,29.72,1.8,Calm,Calm,-,N/A,,Mostly Cloudy,0,2012-03-25 08:28:00
4:34 AM,60.8,60.8,100,29.72,2.0,Calm,Calm,-,N/A,,Mostly Cloudy,0,2012-03-25 08:34:00
4:42 AM,60.8,60.8,100,29.72,7.0,NNE,3.5,-,N/A,,Mostly Cloudy,20,2012-03-25 08:42:00
4:56 AM,62.1,60.1,93,29.72,10.0,NE,8.1,-,N/A,,Overcast,40,2012-03-25 08:56:00
5:56 AM,62.1,60.1,93,29.72,10.0,East,3.5,-,0.01,,Overcast,100,2012-03-25 09:56:00
6:56 AM,61.0,60.1,97,29.72,10.0,West,3.5,-,N/A,,Overcast,260,2012-03-25 10:56:00
7:37 AM,60.8,60.8,100,29.71,9.0,West,3.5,-,N/A,,Overcast,270,2012-03-25 11:37:00
7:56 AM,61.0,60.1,97,29.73,8.0,West,4.6,-,N/A,,Overcast,280,2012-03-25 11:56:00
8:56 AM,63.0,61.0,93,29.73,10.0,West,5.8,-,N/A,,Overcast,280,2012-03-25 12:56:00
9:10 AM,62.6,60.8,94,29.72,10.0,WNW,5.8,-,N/A,,Overcast,290,2012-03-25 13:10:00
9:56 AM,64.0,60.1,87,29.73,10.0,West,6.9,-,N/A,,Mostly Cloudy,270,2012-03-25 13:56:00
10:54 AM,66.2,60.8,83,29.71,10.0,WNW,9.2,-,N/A,,Scattered Clouds,300,2012-03-25 14:54:00
10:56 AM,66.0,60.1,81,29.72,10.0,WNW,8.1,-,N/A,,Scattered Clouds,300,2012-03-25 14:56:00
11:56 AM,70.0,60.1,71,29.72,10.0,WNW,5.8,-,N/A,,Scattered Clouds,290,2012-03-25 15:56:00
12:56 PM,70.0,57.0,63,29.70,10.0,Variable,6.9,-,N/A,,Mostly Cloudy,0,2012-03-25 16:56:00
1:56 PM,71.1,57.0,61,29.67,10.0,NNW,10.4,-,N/A,,Mostly Cloudy,340,2012-03-25 17:56:00
2:12 PM,71.6,55.4,57,29.66,10.0,NNW,8.1,-,N/A,Thunderstorm,Thunderstorm,340,2012-03-25 18:12:00
2:17 PM,69.8,55.4,60,29.66,1.8,Calm,Calm,-,N/A,Thunderstorm,Unknown,0,2012-03-25 18:17:00
2:37 PM,60.8,55.4,82,29.68,0.5,SE,12.7,28.8,0.71,Rain-Thunderstorm,Heavy Thunderstorms and Rain,140,2012-03-25 18:37:00
2:42 PM,60.8,57.2,88,29.68,0.2,NNW,19.6,32.2,1.09,Fog-Rain-Thunderstorm,Heavy Thunderstorms and Rain,330,2012-03-25 18:42:00
2:54 PM,53.6,48.2,82,29.69,0.2,NNW,13.8,38.0,2.36,Rain-Thunderstorm,Heavy Thunderstorms and Rain,330,2012-03-25 18:54:00
2:56 PM,53.1,48.0,83,29.70,0.2,WNW,13.8,38.0,2.55,Rain-Thunderstorm,Heavy Thunderstorms and Rain,300,2012-03-25 18:56:00
2:58 PM,51.8,48.2,88,29.70,0.2,NW,15.0,23.0,0.07,Fog-Rain-Thunderstorm,Heavy Thunderstorms and Rain,310,2012-03-25 18:58:00
3:21 PM,53.6,50.0,88,29.69,1.0,NW,4.6,-,0.97,Rain-Thunderstorm,Heavy Thunderstorms and Rain,320,2012-03-25 19:21:00
3:24 PM,53.6,50.0,88,29.68,1.2,North,5.8,-,0.98,Rain-Thunderstorm,Heavy Thunderstorms and Rain,360,2012-03-25 19:24:00
3:29 PM,55.4,48.2,77,29.68,3.0,North,3.5,-,1.00,Rain-Thunderstorm,Thunderstorms and Rain,360,2012-03-25 19:29:00
3:56 PM,55.0,52.0,89,29.69,9.0,Calm,Calm,-,1.02,Rain,Light Rain,0,2012-03-25 19:56:00
4:45 PM,59.0,55.4,88,29.67,10.0,SSE,4.6,-,0.01,Thunderstorm,Thunderstorm,150,2012-03-25 20:45:00
4:56 PM,61.0,55.9,83,29.66,10.0,Variable,4.6,-,0.01,Thunderstorm,Thunderstorm,0,2012-03-25 20:56:00
5:24 PM,62.6,57.2,82,29.65,10.0,Variable,3.5,-,N/A,,Clear,0,2012-03-25 21:24:00
5:45 PM,60.8,57.2,88,29.67,10.0,North,11.5,-,N/A,Thunderstorm,Thunderstorm,10,2012-03-25 21:45:00
5:56 PM,62.1,57.9,86,29.68,10.0,North,8.1,-,N/A,Thunderstorm,Thunderstorm,350,2012-03-25 21:56:00
6:09 PM,62.6,57.2,82,29.67,10.0,North,6.9,-,N/A,,Clear,10,2012-03-25 22:09:00
6:33 PM,62.6,57.2,82,29.68,10.0,NW,6.9,-,N/A,Thunderstorm,Thunderstorm,320,2012-03-25 22:33:00
6:51 PM,60.8,53.6,77,29.68,10.0,NW,5.8,-,N/A,,Clear,320,2012-03-25 22:51:00
6:56 PM,61.0,55.0,81,29.68,10.0,NW,4.6,-,N/A,,Clear,320,2012-03-25 22:56:00
7:16 PM,60.8,55.4,82,29.67,10.0,Calm,Calm,-,N/A,Thunderstorm,Thunderstorm,0,2012-03-25 23:16:00
7:56 PM,59.0,55.0,87,29.70,10.0,North,3.5,-,N/A,,Clear,350,2012-03-25 23:56:00
8:41 PM,57.2,53.6,88,29.71,10.0,West,5.8,-,N/A,Thunderstorm,Thunderstorm,260,2012-03-26 00:41:00
8:56 PM,57.9,55.0,90,29.73,10.0,West,9.2,-,N/A,Thunderstorm,Thunderstorm,270,2012-03-26 00:56:00
9:20 PM,59.0,53.6,82,29.74,10.0,WNW,13.8,-,N/A,Thunderstorm,Thunderstorm,300,2012-03-26 01:20:00
9:39 PM,57.2,53.6,88,29.73,10.0,WNW,8.1,-,N/A,Thunderstorm,Thunderstorm,300,2012-03-26 01:39:00
9:56 PM,55.9,54.0,93,29.75,10.0,NW,10.4,-,N/A,Thunderstorm,Thunderstorm,320,2012-03-26 01:56:00
10:09 PM,55.4,53.6,94,29.74,10.0,WNW,10.4,-,N/A,,Mostly Cloudy,300,2012-03-26 02:09:00
10:56 PM,55.9,53.1,90,29.74,10.0,WNW,10.4,-,N/A,,Clear,300,2012-03-26 02:56:00
11:56 PM,57.0,53.1,87,29.74,10.0,NW,9.2,-,0.00,Rain,Light Rain,310,2012-03-26 03:56:00